createdAt,value
2022-10-09T00:00:27.148Z,17.55
2022-10-09T00:03:19.912Z,17.57
2022-10-09T00:05:52.078Z,17.58
2022-10-09T00:08:24.261Z,17.62
2022-10-09T00:10:56.469Z,17.67
2022-10-09T00:13:28.892Z,17.67
2022-10-09T00:15:59.377Z,17.65
2022-10-09T00:18:31.637Z,17.63
2022-10-09T00:21:04.082Z,17.60
2022-10-09T00:23:34.691Z,17.59
2022-10-09T00:26:07.211Z,17.55
2022-10-09T00:28:39.449Z,17.55
2022-10-09T00:31:12.674Z,17.53
2022-10-09T00:33:45.107Z,17.48
2022-10-09T00:36:19.286Z,17.44
2022-10-09T00:38:51.856Z,17.35
2022-10-09T00:41:23.190Z,17.24
2022-10-09T00:43:57.320Z,17.17
2022-10-09T00:46:35.591Z,17.16
2022-10-09T00:49:17.280Z,17.16
2022-10-09T00:51:50.588Z,17.13
2022-10-09T00:54:24.561Z,17.12
2022-10-09T00:56:57.547Z,17.09
2022-10-09T00:59:30.144Z,17.05
2022-10-09T01:02:00.655Z,17.03
2022-10-09T01:04:33.036Z,16.96
2022-10-09T01:07:18.801Z,16.96
2022-10-09T01:09:56.002Z,16.98
2022-10-09T01:12:35.232Z,17.01
2022-10-09T01:15:13.455Z,17.01
2022-10-09T01:17:53.063Z,17.00
2022-10-09T01:20:37.630Z,17.00
2022-10-09T01:23:27.263Z,16.99
2022-10-09T01:26:10.648Z,16.95
2022-10-09T01:28:44.428Z,16.95
2022-10-09T01:31:17.783Z,16.94
2022-10-09T01:33:50.219Z,16.91
2022-10-09T01:36:23.141Z,16.88
2022-10-09T01:38:55.923Z,16.87
2022-10-09T01:41:28.159Z,16.85
2022-10-09T01:44:00.308Z,16.82
2022-10-09T01:46:33.732Z,16.77
2022-10-09T01:49:13.706Z,16.71
2022-10-09T01:51:59.074Z,16.67
2022-10-09T01:54:36.478Z,16.64
2022-10-09T01:57:09.914Z,16.62
2022-10-09T01:59:43.928Z,16.61
2022-10-09T02:02:16.395Z,16.60
2022-10-09T02:04:50.090Z,16.58
2022-10-09T02:07:22.913Z,16.57
2022-10-09T02:09:55.991Z,16.58
2022-10-09T02:12:30.850Z,16.58
2022-10-09T02:15:03.057Z,16.55
2022-10-09T02:17:38.599Z,16.51
2022-10-09T02:20:15.916Z,16.45
2022-10-09T02:22:49.538Z,16.42
2022-10-09T02:25:22.312Z,16.38
2022-10-09T02:27:52.756Z,16.36
2022-10-09T02:30:25.213Z,16.31
2022-10-09T02:32:55.654Z,16.28
2022-10-09T02:35:27.778Z,16.23
2022-10-09T02:37:59.847Z,16.22
2022-10-09T02:40:31.867Z,16.18
2022-10-09T02:43:04.037Z,16.19
2022-10-09T02:45:36.182Z,16.16
2022-10-09T02:48:08.652Z,16.17
2022-10-09T02:50:40.651Z,16.18
2022-10-09T02:53:12.696Z,16.16
2022-10-09T02:55:44.810Z,16.17
2022-10-09T02:58:16.945Z,16.15
2022-10-09T03:00:52.562Z,16.12
2022-10-09T03:03:24.642Z,16.10
2022-10-09T03:06:04.139Z,16.06
2022-10-09T03:08:36.423Z,16.01
2022-10-09T03:11:08.683Z,15.96
2022-10-09T03:13:41.170Z,15.92
2022-10-09T03:16:15.137Z,15.81
2022-10-09T03:18:47.461Z,15.66
2022-10-09T03:21:21.081Z,15.60
2022-10-09T03:23:53.801Z,15.59
2022-10-09T03:26:27.649Z,15.56
2022-10-09T03:29:00.025Z,15.54
2022-10-09T03:31:51.230Z,15.57
2022-10-09T03:34:24.543Z,15.61
2022-10-09T03:36:57.005Z,15.64
2022-10-09T03:39:29.485Z,15.70
2022-10-09T03:42:01.769Z,15.76
2022-10-09T03:44:34.103Z,15.83
2022-10-09T03:47:06.984Z,15.85
2022-10-09T03:49:39.347Z,15.80
2022-10-09T03:52:11.697Z,15.81
2022-10-09T03:54:44.034Z,15.85
2022-10-09T03:57:16.444Z,15.89
2022-10-09T03:59:48.789Z,15.90
2022-10-09T04:02:21.110Z,15.87
2022-10-09T04:04:53.502Z,15.86
2022-10-09T04:07:25.969Z,15.89
2022-10-09T04:09:58.579Z,15.92
2022-10-09T04:12:30.978Z,15.98
2022-10-09T04:15:04.121Z,16.02
2022-10-09T04:17:36.470Z,16.06
2022-10-09T04:20:10.293Z,16.07
2022-10-09T04:22:42.578Z,16.03
2022-10-09T04:25:14.999Z,16.03
2022-10-09T04:27:47.361Z,16.03
2022-10-09T04:30:19.754Z,15.98
2022-10-09T04:32:52.332Z,15.99
2022-10-09T04:35:23.165Z,15.99
2022-10-09T04:37:55.470Z,15.96
2022-10-09T04:40:27.815Z,15.82
2022-10-09T04:43:00.102Z,15.69
2022-10-09T04:45:32.655Z,15.59
2022-10-09T04:48:05.043Z,15.53
2022-10-09T04:50:37.436Z,15.50
2022-10-09T04:53:09.854Z,15.48
2022-10-09T04:55:43.236Z,15.47
2022-10-09T04:58:16.003Z,15.48
2022-10-09T05:00:46.972Z,15.43
2022-10-09T05:03:19.513Z,15.37
2022-10-09T05:05:51.925Z,15.28
2022-10-09T05:08:24.324Z,15.21
2022-10-09T05:10:56.804Z,15.15
2022-10-09T05:13:29.119Z,15.16
2022-10-09T05:16:03.997Z,15.17
2022-10-09T05:18:36.700Z,15.23
2022-10-09T05:21:09.273Z,15.26
2022-10-09T05:23:41.990Z,15.31
2022-10-09T05:26:17.700Z,15.32
2022-10-09T05:28:50.461Z,15.21
2022-10-09T05:31:22.135Z,15.10
2022-10-09T05:33:54.735Z,15.09
2022-10-09T05:36:27.001Z,15.09
2022-10-09T05:39:01.305Z,15.08
2022-10-09T05:41:33.727Z,15.06
2022-10-09T05:44:06.935Z,15.06
2022-10-09T05:46:39.296Z,15.05
2022-10-09T05:49:13.222Z,15.04
2022-10-09T05:51:45.640Z,15.08
2022-10-09T05:54:19.389Z,15.10
2022-10-09T05:56:51.687Z,15.10
2022-10-09T05:59:23.979Z,15.07
2022-10-09T06:01:56.486Z,15.10
2022-10-09T06:04:29.023Z,15.18
2022-10-09T06:07:01.356Z,15.24
2022-10-09T06:09:33.982Z,15.41
2022-10-09T06:12:06.590Z,15.66
2022-10-09T06:14:38.884Z,15.88
2022-10-09T06:17:11.150Z,16.09
2022-10-09T06:19:43.431Z,16.30
2022-10-09T06:22:15.719Z,16.46
2022-10-09T06:24:48.060Z,16.65
2022-10-09T06:27:20.367Z,16.75
2022-10-09T06:29:53.490Z,16.87
2022-10-09T06:32:25.927Z,17.05
2022-10-09T06:34:58.221Z,17.22
2022-10-09T06:37:30.534Z,17.33
2022-10-09T06:40:02.938Z,17.37
2022-10-09T06:42:35.245Z,17.41
2022-10-09T06:45:09.300Z,17.50
2022-10-09T06:47:41.670Z,17.59
2022-10-09T06:50:14.203Z,17.63
2022-10-09T06:52:46.742Z,17.69
2022-10-09T06:55:19.679Z,17.80
2022-10-09T06:57:50.426Z,17.89
2022-10-09T07:00:22.723Z,17.92
2022-10-09T07:02:55.166Z,17.87
2022-10-09T07:05:27.533Z,17.83
2022-10-09T07:07:59.893Z,17.81
2022-10-09T07:10:32.342Z,17.68
2022-10-09T07:13:04.699Z,17.67
2022-10-09T07:15:37.048Z,17.67
2022-10-09T07:18:09.711Z,17.76
2022-10-09T07:20:42.040Z,17.87
2022-10-09T07:23:14.387Z,17.98
2022-10-09T07:25:46.699Z,18.05
2022-10-09T07:28:19.180Z,18.10
2022-10-09T07:30:51.614Z,18.16
2022-10-09T07:33:24.095Z,18.23
2022-10-09T07:36:00.142Z,18.33
2022-10-09T07:38:32.885Z,18.47
2022-10-09T07:41:04.343Z,18.61
2022-10-09T07:43:37.587Z,18.67
2022-10-09T07:46:13.237Z,18.75
2022-10-09T07:48:46.042Z,18.86
2022-10-09T07:51:19.773Z,18.92
2022-10-09T07:53:52.442Z,18.94
2022-10-09T07:56:23.834Z,18.99
2022-10-09T07:58:57.545Z,19.11
2022-10-09T08:01:30.753Z,19.25
2022-10-09T08:04:04.043Z,19.33
2022-10-09T08:06:36.733Z,19.43
2022-10-09T08:09:09.952Z,19.55
2022-10-09T08:11:42.440Z,19.65
2022-10-09T08:14:19.269Z,19.74
2022-10-09T08:16:51.921Z,19.84
2022-10-09T08:19:22.853Z,19.96
2022-10-09T08:21:55.304Z,20.06
2022-10-09T08:24:27.597Z,20.10
2022-10-09T08:26:59.887Z,20.15
2022-10-09T08:29:35.554Z,20.21
2022-10-09T08:32:10.652Z,20.25
2022-10-09T08:34:43.007Z,20.25
2022-10-09T08:37:15.367Z,20.31
2022-10-09T08:39:47.668Z,20.38
2022-10-09T08:42:28.478Z,20.43
2022-10-09T08:45:00.768Z,20.55
2022-10-09T08:47:39.013Z,20.68
2022-10-09T08:50:15.226Z,20.81
2022-10-09T08:52:52.547Z,20.92
2022-10-09T08:55:27.349Z,21.00
2022-10-09T08:58:05.470Z,21.03
2022-10-09T09:00:41.309Z,21.17
2022-10-09T09:03:31.074Z,21.32
2022-10-09T09:06:09.190Z,21.37
2022-10-09T09:08:50.094Z,21.49
2022-10-09T09:11:27.876Z,21.66
2022-10-09T09:14:13.553Z,21.96
2022-10-09T09:16:51.513Z,22.25
2022-10-09T09:19:55.064Z,22.56
2022-10-09T09:22:28.101Z,23.01
2022-10-09T09:25:01.612Z,23.41
2022-10-09T09:27:36.730Z,23.86
2022-10-09T09:30:18.939Z,24.32
2022-10-09T09:32:58.239Z,24.73
2022-10-09T09:35:37.257Z,25.01
2022-10-09T09:38:09.586Z,25.25
2022-10-09T09:40:46.596Z,25.40
2022-10-09T09:43:21.850Z,25.50
2022-10-09T09:45:57.654Z,25.55
2022-10-09T09:48:36.267Z,25.86
2022-10-09T09:51:27.977Z,26.31
2022-10-09T09:54:04.204Z,26.71
2022-10-09T09:57:07.136Z,27.12
2022-10-09T09:59:37.371Z,27.29
2022-10-09T10:02:18.346Z,27.53
2022-10-09T10:04:59.143Z,27.73
2022-10-09T10:07:33.478Z,28.07
2022-10-09T10:10:08.343Z,28.42
2022-10-09T10:12:45.046Z,28.68
2022-10-09T10:15:23.853Z,28.96
2022-10-09T10:18:02.388Z,29.26
2022-10-09T10:20:44.928Z,29.46
2022-10-09T10:23:33.577Z,29.62
2022-10-09T10:26:13.302Z,29.46
2022-10-09T10:28:50.570Z,29.04
2022-10-09T10:31:33.959Z,28.88
2022-10-09T10:34:08.753Z,28.98
2022-10-09T10:36:41.063Z,29.00
2022-10-09T10:39:18.547Z,28.98
2022-10-09T10:41:52.903Z,29.12
2022-10-09T10:44:38.211Z,29.47
2022-10-09T10:47:14.385Z,29.91
2022-10-09T10:49:46.712Z,30.14
2022-10-09T10:52:31.107Z,30.30
2022-10-09T10:55:14.569Z,30.43
2022-10-09T10:57:52.428Z,30.40
2022-10-09T11:00:26.582Z,30.39
2022-10-09T11:03:07.131Z,30.55
2022-10-09T11:05:46.751Z,30.88
2022-10-09T11:08:32.863Z,31.00
2022-10-09T11:11:10.371Z,31.08
2022-10-09T11:13:49.599Z,31.23
2022-10-09T11:16:34.848Z,31.43
2022-10-09T11:19:22.187Z,31.67
2022-10-09T11:22:03.579Z,31.85
2022-10-09T11:24:52.317Z,32.04
2022-10-09T11:27:27.697Z,32.17
2022-10-09T11:30:03.348Z,32.43
2022-10-09T11:35:17.179Z,32.70
2022-10-09T11:37:55.261Z,32.64
2022-10-09T11:40:30.638Z,32.70
2022-10-09T11:43:08.758Z,32.81
2022-10-09T11:45:44.430Z,32.85
2022-10-09T11:48:22.829Z,32.93
2022-10-09T11:51:02.282Z,33.01
2022-10-09T11:53:37.076Z,32.91
2022-10-09T11:56:20.562Z,32.84
2022-10-09T11:59:01.314Z,32.84
2022-10-09T12:01:35.989Z,32.88
2022-10-09T12:04:20.822Z,32.85
2022-10-09T12:07:01.979Z,32.77
2022-10-09T12:09:37.203Z,32.37
2022-10-09T12:12:21.099Z,32.35
2022-10-09T12:14:54.567Z,32.68
2022-10-09T12:17:38.567Z,32.99
2022-10-09T12:20:18.796Z,33.06
2022-10-09T12:23:14.252Z,32.88
2022-10-09T12:25:48.841Z,32.75
2022-10-09T12:28:29.569Z,32.65
2022-10-09T12:31:04.310Z,32.41
2022-10-09T12:33:41.820Z,31.96
2022-10-09T12:36:17.282Z,31.74
2022-10-09T12:38:49.623Z,31.81
2022-10-09T12:41:25.289Z,32.02
2022-10-09T12:43:58.366Z,32.08
2022-10-09T12:46:32.794Z,32.30
2022-10-09T12:49:08.913Z,32.58
2022-10-09T12:51:41.359Z,32.63
2022-10-09T12:54:15.563Z,32.51
2022-10-09T12:56:48.194Z,32.45
2022-10-09T12:59:21.303Z,32.42
2022-10-09T13:01:56.054Z,32.50
2022-10-09T13:04:31.211Z,32.50
2022-10-09T13:07:07.496Z,32.53
2022-10-09T13:09:41.493Z,32.64
2022-10-09T13:12:21.014Z,32.72
2022-10-09T13:14:58.221Z,32.70
2022-10-09T13:17:35.313Z,32.87
2022-10-09T13:20:27.249Z,32.99
2022-10-09T13:23:01.768Z,33.01
2022-10-09T13:25:37.210Z,33.13
2022-10-09T13:28:11.472Z,33.29
2022-10-09T13:30:43.911Z,33.43
2022-10-09T13:33:17.962Z,33.47
2022-10-09T13:35:50.281Z,33.52
2022-10-09T13:38:23.732Z,33.64
2022-10-09T13:40:56.604Z,33.67
2022-10-09T13:43:31.163Z,33.63
2022-10-09T13:46:03.624Z,33.53
2022-10-09T13:48:37.841Z,33.42
2022-10-09T13:51:10.455Z,33.19
2022-10-09T13:53:42.757Z,33.00
2022-10-09T13:56:15.490Z,32.75
2022-10-09T13:58:47.897Z,32.39
2022-10-09T14:01:20.496Z,32.14
2022-10-09T14:03:52.837Z,31.90
2022-10-09T14:06:25.219Z,31.60
2022-10-09T14:08:58.254Z,31.40
2022-10-09T14:11:30.588Z,31.12
2022-10-09T14:14:03.151Z,30.84
2022-10-09T14:16:35.574Z,30.59
2022-10-09T14:19:08.582Z,30.33
2022-10-09T14:21:40.991Z,30.17
2022-10-09T14:24:14.602Z,30.09
2022-10-09T14:26:51.359Z,29.94
2022-10-09T14:29:24.083Z,29.68
2022-10-09T14:31:56.477Z,29.44
2022-10-09T14:34:28.852Z,29.24
2022-10-09T14:37:01.885Z,29.04
2022-10-09T14:39:37.765Z,28.88
2022-10-09T14:42:10.241Z,28.75
2022-10-09T14:44:42.919Z,28.57
2022-10-09T14:47:15.324Z,28.39
2022-10-09T14:49:47.723Z,28.20
2022-10-09T14:52:20.250Z,28.04
2022-10-09T14:54:52.667Z,27.91
2022-10-09T14:57:25.146Z,27.84
2022-10-09T14:59:57.599Z,27.82
2022-10-09T15:02:29.978Z,27.77
2022-10-09T15:05:02.372Z,27.74
2022-10-09T15:07:34.979Z,27.70
2022-10-09T15:10:08.269Z,27.63
2022-10-09T15:12:41.171Z,27.55
2022-10-09T15:15:13.952Z,27.47
2022-10-09T15:17:46.468Z,27.38
2022-10-09T15:20:19.064Z,27.29
2022-10-09T15:22:51.748Z,27.20
2022-10-09T15:25:25.483Z,27.11
2022-10-09T15:27:58.006Z,27.03
2022-10-09T15:30:30.851Z,26.95
2022-10-09T15:33:05.307Z,26.85
2022-10-09T15:35:37.730Z,26.77
2022-10-09T15:38:11.385Z,26.67
2022-10-09T15:40:48.001Z,26.57
2022-10-09T15:43:22.617Z,26.46
2022-10-09T15:45:55.587Z,26.35
2022-10-09T15:48:27.995Z,26.26
2022-10-09T15:51:00.328Z,26.17
2022-10-09T15:53:32.659Z,25.96
2022-10-09T15:56:06.464Z,25.71
2022-10-09T15:58:38.975Z,25.47
2022-10-09T16:01:12.936Z,25.34
2022-10-09T16:03:45.907Z,25.27
2022-10-09T16:06:19.906Z,25.22
2022-10-09T16:08:52.806Z,25.17
2022-10-09T16:11:26.599Z,25.04
2022-10-09T16:13:59.872Z,24.79
2022-10-09T16:16:32.295Z,24.63
2022-10-09T16:19:05.328Z,24.50
2022-10-09T16:21:37.767Z,24.43
2022-10-09T16:24:10.432Z,24.35
2022-10-09T16:26:42.759Z,24.18
2022-10-09T16:29:13.470Z,24.13
2022-10-09T16:31:45.877Z,24.07
2022-10-09T16:34:18.311Z,24.03
2022-10-09T16:36:50.730Z,23.98
2022-10-09T16:39:23.920Z,23.94
2022-10-09T16:42:00.597Z,23.91
2022-10-09T16:44:33.061Z,23.88
2022-10-09T16:47:05.391Z,23.84
2022-10-09T16:49:36.109Z,23.81
2022-10-09T16:52:08.422Z,23.74
2022-10-09T16:54:40.722Z,23.64
2022-10-09T16:57:11.557Z,23.55
2022-10-09T16:59:44.008Z,23.37
2022-10-09T17:02:15.101Z,23.17
2022-10-09T17:04:47.692Z,22.95
2022-10-09T17:07:23.282Z,22.83
2022-10-09T17:09:55.890Z,22.76
2022-10-09T17:12:26.572Z,22.70
2022-10-09T17:14:58.971Z,22.62
2022-10-09T17:17:31.487Z,22.63
2022-10-09T17:20:02.143Z,22.63
2022-10-09T17:22:34.167Z,22.60
2022-10-09T17:25:07.406Z,22.61
2022-10-09T17:27:39.734Z,22.55
2022-10-09T17:30:14.128Z,22.56
2022-10-09T17:32:46.806Z,22.61
2022-10-09T17:35:19.896Z,22.65
2022-10-09T17:37:55.095Z,22.62
2022-10-09T17:40:27.405Z,22.62
2022-10-09T17:43:00.675Z,22.64
2022-10-09T17:45:37.119Z,22.63
2022-10-09T17:48:12.232Z,22.63
2022-10-09T17:50:53.583Z,22.67
2022-10-09T17:53:26.671Z,22.71
2022-10-09T17:56:03.373Z,22.70
2022-10-09T17:58:36.139Z,22.68
2022-10-09T18:01:09.967Z,22.65
2022-10-09T18:03:42.685Z,22.60
2022-10-09T18:06:17.444Z,22.56
2022-10-09T18:08:51.587Z,22.54
2022-10-09T18:11:25.792Z,22.50
2022-10-09T18:13:58.794Z,22.45
2022-10-09T18:16:36.212Z,22.43
2022-10-09T18:19:12.653Z,22.45
2022-10-09T18:21:46.666Z,22.45
2022-10-09T18:24:19.231Z,22.42
2022-10-09T18:26:51.687Z,22.41
2022-10-09T18:29:24.147Z,22.39
2022-10-09T18:31:56.695Z,22.38
2022-10-09T18:34:29.088Z,22.36
2022-10-09T18:37:01.538Z,22.32
2022-10-09T18:39:33.922Z,22.30
2022-10-09T18:42:06.799Z,22.27
2022-10-09T18:44:40.428Z,22.22
2022-10-09T18:47:17.088Z,22.17
2022-10-09T18:49:52.544Z,22.10
2022-10-09T18:52:25.229Z,22.00
2022-10-09T18:54:58.106Z,21.89
2022-10-09T18:57:30.625Z,21.77
2022-10-09T19:00:01.307Z,21.66
2022-10-09T19:02:33.798Z,21.54
2022-10-09T19:05:06.611Z,21.47
2022-10-09T19:07:39.018Z,21.40
2022-10-09T19:10:12.217Z,21.29
2022-10-09T19:12:44.659Z,21.19
2022-10-09T19:15:17.080Z,21.13
2022-10-09T19:17:47.891Z,21.06
2022-10-09T19:20:20.578Z,20.97
2022-10-09T19:22:52.917Z,20.92
2022-10-09T19:25:25.340Z,20.88
2022-10-09T19:27:57.661Z,20.85
2022-10-09T19:30:30.533Z,20.77
2022-10-09T19:33:02.957Z,20.70
2022-10-09T19:35:35.279Z,20.61
2022-10-09T19:38:07.728Z,20.48
2022-10-09T19:40:40.061Z,20.38
2022-10-09T19:43:12.768Z,20.27
2022-10-09T19:45:45.375Z,20.21
2022-10-09T19:48:16.125Z,20.07
2022-10-09T19:50:48.793Z,19.91
2022-10-09T19:53:19.473Z,19.81
2022-10-09T19:55:51.834Z,19.71
2022-10-09T19:58:24.142Z,19.63
2022-10-09T20:00:56.544Z,19.59
2022-10-09T20:03:28.956Z,19.55
2022-10-09T20:06:05.345Z,19.49
2022-10-09T20:08:37.993Z,19.39
2022-10-09T20:11:08.834Z,19.27
2022-10-09T20:13:43.112Z,19.16
2022-10-09T20:16:17.738Z,19.10
2022-10-09T20:18:50.164Z,19.10
2022-10-09T20:21:22.503Z,19.11
2022-10-09T20:23:54.852Z,19.09
2022-10-09T20:26:28.116Z,19.04
2022-10-09T20:29:00.560Z,18.98
2022-10-09T20:31:32.937Z,18.96
2022-10-09T20:34:05.270Z,18.97
2022-10-09T20:36:39.215Z,18.94
2022-10-09T20:39:14.081Z,18.90
2022-10-09T20:41:46.699Z,18.81
2022-10-09T20:44:19.095Z,18.74
2022-10-09T20:46:53.238Z,18.71
2022-10-09T20:49:25.684Z,18.67
2022-10-09T20:51:57.990Z,18.65
2022-10-09T20:54:31.535Z,18.63
2022-10-09T20:57:03.975Z,18.63
2022-10-09T20:59:36.400Z,18.65
2022-10-09T21:02:08.789Z,18.69
2022-10-09T21:04:41.135Z,18.73
2022-10-09T21:07:13.452Z,18.74
2022-10-09T21:09:45.844Z,18.71
2022-10-09T21:12:18.254Z,18.70
2022-10-09T21:14:50.636Z,18.65
2022-10-09T21:17:23.055Z,18.59
2022-10-09T21:19:56.558Z,18.59
2022-10-09T21:22:29.089Z,18.55
2022-10-09T21:25:01.483Z,18.47
2022-10-09T21:27:33.928Z,18.44
2022-10-09T21:30:07.953Z,18.40
2022-10-09T21:32:40.255Z,18.35
2022-10-09T21:35:12.671Z,18.33
2022-10-09T21:37:44.981Z,18.32
2022-10-09T21:40:17.616Z,18.30
2022-10-09T21:42:50.020Z,18.26
2022-10-09T21:45:22.574Z,18.20
2022-10-09T21:47:54.862Z,18.13
2022-10-09T21:50:27.817Z,18.13
2022-10-09T21:53:00.364Z,18.12
2022-10-09T21:55:32.757Z,18.11
2022-10-09T21:58:05.092Z,18.06
2022-10-09T22:00:37.832Z,17.98
2022-10-09T22:03:08.454Z,17.98
2022-10-09T22:05:42.976Z,17.94
2022-10-09T22:08:15.234Z,17.91
2022-10-09T22:10:47.554Z,17.91
2022-10-09T22:13:19.948Z,17.92
2022-10-09T22:15:52.247Z,17.91
2022-10-09T22:18:24.553Z,17.89
2022-10-09T22:20:56.821Z,17.85
2022-10-09T22:23:29.134Z,17.83
2022-10-09T22:26:03.394Z,17.84
2022-10-09T22:28:36.009Z,17.84
2022-10-09T22:31:10.498Z,17.87
2022-10-09T22:33:42.947Z,17.90
2022-10-09T22:36:17.268Z,17.89
2022-10-09T22:38:49.656Z,17.81
2022-10-09T22:41:23.462Z,17.74
2022-10-09T22:43:57.238Z,17.71
2022-10-09T22:46:31.489Z,17.67
2022-10-09T22:49:03.740Z,17.62
2022-10-09T22:51:36.566Z,17.61
2022-10-09T22:54:09.227Z,17.59
2022-10-09T22:56:40.471Z,17.57
2022-10-09T22:59:15.177Z,17.50
2022-10-09T23:01:49.485Z,17.48
2022-10-09T23:04:23.124Z,17.49
2022-10-09T23:06:57.871Z,17.51
2022-10-09T23:09:32.046Z,17.50
2022-10-09T23:12:04.439Z,17.49
2022-10-09T23:14:36.858Z,17.47
2022-10-09T23:17:09.183Z,17.44
2022-10-09T23:19:41.716Z,17.39
2022-10-09T23:22:14.034Z,17.36
2022-10-09T23:24:46.567Z,17.38
2022-10-09T23:27:18.986Z,17.41
2022-10-09T23:29:51.498Z,17.43
2022-10-09T23:32:23.803Z,17.40
2022-10-09T23:34:56.046Z,17.37
2022-10-09T23:37:28.626Z,17.37
2022-10-09T23:40:00.953Z,17.34
2022-10-09T23:42:33.354Z,17.30
2022-10-09T23:45:06.855Z,17.28
2022-10-09T23:47:39.185Z,17.26
2022-10-09T23:50:11.944Z,17.25
2022-10-09T23:52:42.602Z,17.30
2022-10-09T23:55:14.935Z,17.30
2022-10-09T23:57:47.252Z,17.25
